sensor_id;sensor_type;location;lat;lon;timestamp;P1;durP1;ratioP1;P2;durP2;ratioP2
18082;SDS011;9168;51.194;6.840;2023-08-07T00:00:14;14.02;;;2.20;;
18082;SDS011;9168;51.194;6.840;2023-08-07T00:02:41;14.02;;;2.28;;
18082;SDS011;9168;51.194;6.840;2023-08-07T00:05:08;17.67;;;2.85;;
18082;SDS011;9168;51.194;6.840;2023-08-07T00:07:35;12.02;;;2.35;;
18082;SDS011;9168;51.194;6.840;2023-08-07T00:10:04;16.73;;;2.75;;
18082;SDS011;9168;51.194;6.840;2023-08-07T00:12:32;13.48;;;2.65;;
18082;SDS011;9168;51.194;6.840;2023-08-07T00:14:59;16.30;;;2.33;;
18082;SDS011;9168;51.194;6.840;2023-08-07T00:17:26;10.02;;;1.98;;
18082;SDS011;9168;51.194;6.840;2023-08-07T00:19:53;18.92;;;3.05;;
18082;SDS011;9168;51.194;6.840;2023-08-07T00:22:20;12.75;;;2.53;;
18082;SDS011;9168;51.194;6.840;2023-08-07T00:24:47;11.75;;;2.70;;
18082;SDS011;9168;51.194;6.840;2023-08-07T00:27:15;12.68;;;2.42;;
18082;SDS011;9168;51.194;6.840;2023-08-07T00:29:42;9.80;;;2.45;;
18082;SDS011;9168;51.194;6.840;2023-08-07T00:32:09;13.77;;;2.58;;
18082;SDS011;9168;51.194;6.840;2023-08-07T00:34:36;15.35;;;3.35;;
18082;SDS011;9168;51.194;6.840;2023-08-07T00:37:03;9.90;;;2.53;;
18082;SDS011;9168;51.194;6.840;2023-08-07T00:39:30;16.38;;;2.80;;
18082;SDS011;9168;51.194;6.840;2023-08-07T00:41:57;13.38;;;2.47;;
18082;SDS011;9168;51.194;6.840;2023-08-07T00:44:26;12.82;;;2.50;;
18082;SDS011;9168;51.194;6.840;2023-08-07T00:46:52;17.65;;;2.80;;
18082;SDS011;9168;51.194;6.840;2023-08-07T00:49:20;11.18;;;2.45;;
18082;SDS011;9168;51.194;6.840;2023-08-07T00:51:47;16.48;;;3.20;;
18082;SDS011;9168;51.194;6.840;2023-08-07T00:54:15;16.52;;;2.67;;
18082;SDS011;9168;51.194;6.840;2023-08-07T00:56:44;13.07;;;2.70;;
18082;SDS011;9168;51.194;6.840;2023-08-07T00:59:12;15.60;;;2.63;;
18082;SDS011;9168;51.194;6.840;2023-08-07T01:01:41;14.38;;;2.92;;
18082;SDS011;9168;51.194;6.840;2023-08-07T01:04:08;10.38;;;2.25;;
18082;SDS011;9168;51.194;6.840;2023-08-07T01:06:34;15.00;;;2.33;;
18082;SDS011;9168;51.194;6.840;2023-08-07T01:09:02;7.97;;;2.17;;
18082;SDS011;9168;51.194;6.840;2023-08-07T01:11:31;20.02;;;2.90;;
18082;SDS011;9168;51.194;6.840;2023-08-07T01:14:11;12.70;;;2.70;;
18082;SDS011;9168;51.194;6.840;2023-08-07T01:17:02;15.98;;;2.75;;
18082;SDS011;9168;51.194;6.840;2023-08-07T01:19:32;11.73;;;2.90;;
18082;SDS011;9168;51.194;6.840;2023-08-07T01:22:06;11.75;;;2.55;;
18082;SDS011;9168;51.194;6.840;2023-08-07T01:24:33;12.25;;;2.90;;
18082;SDS011;9168;51.194;6.840;2023-08-07T01:27:02;13.38;;;3.38;;
18082;SDS011;9168;51.194;6.840;2023-08-07T01:29:40;11.75;;;2.50;;
18082;SDS011;9168;51.194;6.840;2023-08-07T01:32:13;11.45;;;2.55;;
18082;SDS011;9168;51.194;6.840;2023-08-07T01:34:43;19.58;;;3.55;;
18082;SDS011;9168;51.194;6.840;2023-08-07T01:37:13;12.57;;;2.63;;
18082;SDS011;9168;51.194;6.840;2023-08-07T01:39:41;20.60;;;2.80;;
18082;SDS011;9168;51.194;6.840;2023-08-07T01:42:09;15.05;;;2.40;;
18082;SDS011;9168;51.194;6.840;2023-08-07T01:44:37;15.55;;;3.13;;
18082;SDS011;9168;51.194;6.840;2023-08-07T01:47:04;13.40;;;2.60;;
18082;SDS011;9168;51.194;6.840;2023-08-07T01:49:31;14.02;;;3.10;;
18082;SDS011;9168;51.194;6.840;2023-08-07T01:51:58;19.35;;;3.13;;
18082;SDS011;9168;51.194;6.840;2023-08-07T01:54:26;13.80;;;3.33;;
18082;SDS011;9168;51.194;6.840;2023-08-07T01:56:53;12.93;;;2.85;;
18082;SDS011;9168;51.194;6.840;2023-08-07T01:59:20;19.25;;;3.15;;
18082;SDS011;9168;51.194;6.840;2023-08-07T02:01:47;18.42;;;3.20;;
18082;SDS011;9168;51.194;6.840;2023-08-07T02:04:14;15.80;;;3.65;;
18082;SDS011;9168;51.194;6.840;2023-08-07T02:06:41;17.05;;;3.45;;
18082;SDS011;9168;51.194;6.840;2023-08-07T02:09:08;17.90;;;3.90;;
18082;SDS011;9168;51.194;6.840;2023-08-07T02:11:36;21.20;;;3.30;;
18082;SDS011;9168;51.194;6.840;2023-08-07T02:14:03;15.50;;;2.90;;
18082;SDS011;9168;51.194;6.840;2023-08-07T02:16:30;20.00;;;3.17;;
18082;SDS011;9168;51.194;6.840;2023-08-07T02:18:56;15.50;;;3.70;;
18082;SDS011;9168;51.194;6.840;2023-08-07T02:21:23;19.13;;;3.35;;
18082;SDS011;9168;51.194;6.840;2023-08-07T02:23:50;9.93;;;3.30;;
18082;SDS011;9168;51.194;6.840;2023-08-07T02:26:17;11.15;;;2.67;;
18082;SDS011;9168;51.194;6.840;2023-08-07T02:28:45;16.65;;;3.35;;
18082;SDS011;9168;51.194;6.840;2023-08-07T02:31:12;15.90;;;2.85;;
18082;SDS011;9168;51.194;6.840;2023-08-07T02:33:39;15.15;;;3.28;;
18082;SDS011;9168;51.194;6.840;2023-08-07T02:36:06;13.20;;;3.50;;
18082;SDS011;9168;51.194;6.840;2023-08-07T02:38:33;8.75;;;2.70;;
18082;SDS011;9168;51.194;6.840;2023-08-07T02:41:00;18.08;;;3.42;;
18082;SDS011;9168;51.194;6.840;2023-08-07T02:43:27;17.00;;;3.50;;
18082;SDS011;9168;51.194;6.840;2023-08-07T02:45:55;12.45;;;3.30;;
18082;SDS011;9168;51.194;6.840;2023-08-07T02:48:22;14.73;;;3.58;;
18082;SDS011;9168;51.194;6.840;2023-08-07T02:50:49;19.45;;;3.58;;
18082;SDS011;9168;51.194;6.840;2023-08-07T02:53:16;18.67;;;3.65;;
18082;SDS011;9168;51.194;6.840;2023-08-07T02:55:43;17.60;;;3.63;;
18082;SDS011;9168;51.194;6.840;2023-08-07T02:58:10;12.73;;;3.00;;
18082;SDS011;9168;51.194;6.840;2023-08-07T03:00:37;15.93;;;3.53;;
18082;SDS011;9168;51.194;6.840;2023-08-07T03:03:06;18.77;;;3.55;;
18082;SDS011;9168;51.194;6.840;2023-08-07T03:05:32;14.38;;;3.30;;
18082;SDS011;9168;51.194;6.840;2023-08-07T03:07:59;15.02;;;3.30;;
18082;SDS011;9168;51.194;6.840;2023-08-07T03:10:26;21.08;;;3.67;;
18082;SDS011;9168;51.194;6.840;2023-08-07T03:12:53;23.85;;;3.78;;
18082;SDS011;9168;51.194;6.840;2023-08-07T03:15:20;18.52;;;3.33;;
18082;SDS011;9168;51.194;6.840;2023-08-07T03:17:47;21.65;;;3.35;;
18082;SDS011;9168;51.194;6.840;2023-08-07T03:20:15;15.18;;;3.42;;
18082;SDS011;9168;51.194;6.840;2023-08-07T03:22:42;17.73;;;3.47;;
18082;SDS011;9168;51.194;6.840;2023-08-07T03:25:09;14.10;;;3.45;;
18082;SDS011;9168;51.194;6.840;2023-08-07T03:27:36;16.38;;;3.83;;
18082;SDS011;9168;51.194;6.840;2023-08-07T03:30:03;20.17;;;3.50;;
18082;SDS011;9168;51.194;6.840;2023-08-07T03:32:31;15.15;;;3.58;;
18082;SDS011;9168;51.194;6.840;2023-08-07T03:34:58;25.35;;;4.35;;
18082;SDS011;9168;51.194;6.840;2023-08-07T03:37:26;21.00;;;3.65;;
18082;SDS011;9168;51.194;6.840;2023-08-07T03:39:53;16.75;;;3.50;;
18082;SDS011;9168;51.194;6.840;2023-08-07T03:42:20;14.88;;;3.22;;
18082;SDS011;9168;51.194;6.840;2023-08-07T03:44:47;20.42;;;3.60;;
18082;SDS011;9168;51.194;6.840;2023-08-07T03:47:14;18.42;;;3.88;;
18082;SDS011;9168;51.194;6.840;2023-08-07T03:49:40;17.92;;;3.95;;
18082;SDS011;9168;51.194;6.840;2023-08-07T03:52:07;18.95;;;3.67;;
18082;SDS011;9168;51.194;6.840;2023-08-07T03:54:36;13.60;;;3.13;;
18082;SDS011;9168;51.194;6.840;2023-08-07T03:57:03;23.35;;;3.72;;
18082;SDS011;9168;51.194;6.840;2023-08-07T03:59:30;19.92;;;3.70;;
18082;SDS011;9168;51.194;6.840;2023-08-07T04:01:57;16.52;;;3.72;;
18082;SDS011;9168;51.194;6.840;2023-08-07T04:04:24;16.77;;;3.28;;
18082;SDS011;9168;51.194;6.840;2023-08-07T04:06:51;15.55;;;3.65;;
18082;SDS011;9168;51.194;6.840;2023-08-07T04:09:18;25.92;;;3.67;;
18082;SDS011;9168;51.194;6.840;2023-08-07T04:11:46;13.65;;;3.00;;
18082;SDS011;9168;51.194;6.840;2023-08-07T04:14:13;16.48;;;3.53;;
18082;SDS011;9168;51.194;6.840;2023-08-07T04:16:40;20.75;;;3.80;;
18082;SDS011;9168;51.194;6.840;2023-08-07T04:19:07;15.25;;;3.00;;
18082;SDS011;9168;51.194;6.840;2023-08-07T04:21:33;22.45;;;4.00;;
18082;SDS011;9168;51.194;6.840;2023-08-07T04:24:00;19.65;;;4.15;;
18082;SDS011;9168;51.194;6.840;2023-08-07T04:26:33;20.42;;;3.47;;
18082;SDS011;9168;51.194;6.840;2023-08-07T04:29:01;16.48;;;3.60;;
18082;SDS011;9168;51.194;6.840;2023-08-07T04:31:29;15.88;;;3.25;;
18082;SDS011;9168;51.194;6.840;2023-08-07T04:33:56;16.38;;;3.40;;
18082;SDS011;9168;51.194;6.840;2023-08-07T04:36:23;21.92;;;3.88;;
18082;SDS011;9168;51.194;6.840;2023-08-07T04:38:50;24.77;;;4.03;;
18082;SDS011;9168;51.194;6.840;2023-08-07T04:41:17;24.27;;;4.13;;
18082;SDS011;9168;51.194;6.840;2023-08-07T04:43:44;21.42;;;3.90;;
18082;SDS011;9168;51.194;6.840;2023-08-07T04:46:14;23.00;;;3.80;;
18082;SDS011;9168;51.194;6.840;2023-08-07T04:48:41;15.70;;;3.80;;
18082;SDS011;9168;51.194;6.840;2023-08-07T04:51:08;17.30;;;3.58;;
18082;SDS011;9168;51.194;6.840;2023-08-07T04:53:35;14.82;;;3.10;;
18082;SDS011;9168;51.194;6.840;2023-08-07T04:56:02;20.73;;;3.22;;
18082;SDS011;9168;51.194;6.840;2023-08-07T04:58:29;16.13;;;3.58;;
18082;SDS011;9168;51.194;6.840;2023-08-07T05:00:56;23.23;;;3.78;;
18082;SDS011;9168;51.194;6.840;2023-08-07T05:03:25;21.20;;;3.83;;
18082;SDS011;9168;51.194;6.840;2023-08-07T05:05:57;21.85;;;4.18;;
18082;SDS011;9168;51.194;6.840;2023-08-07T05:08:25;18.60;;;4.22;;
18082;SDS011;9168;51.194;6.840;2023-08-07T05:10:52;11.45;;;3.38;;
18082;SDS011;9168;51.194;6.840;2023-08-07T05:13:19;17.02;;;4.03;;
18082;SDS011;9168;51.194;6.840;2023-08-07T05:15:46;20.48;;;3.95;;
18082;SDS011;9168;51.194;6.840;2023-08-07T05:18:14;23.77;;;3.97;;
18082;SDS011;9168;51.194;6.840;2023-08-07T05:20:42;12.05;;;3.17;;
18082;SDS011;9168;51.194;6.840;2023-08-07T05:23:09;15.07;;;4.15;;
18082;SDS011;9168;51.194;6.840;2023-08-07T05:25:36;18.92;;;4.15;;
18082;SDS011;9168;51.194;6.840;2023-08-07T05:28:04;23.38;;;4.05;;
18082;SDS011;9168;51.194;6.840;2023-08-07T05:30:31;17.65;;;3.90;;
18082;SDS011;9168;51.194;6.840;2023-08-07T05:32:58;14.48;;;3.78;;
18082;SDS011;9168;51.194;6.840;2023-08-07T05:35:25;19.23;;;4.07;;
18082;SDS011;9168;51.194;6.840;2023-08-07T05:37:53;20.30;;;4.68;;
18082;SDS011;9168;51.194;6.840;2023-08-07T05:40:20;20.77;;;4.60;;
18082;SDS011;9168;51.194;6.840;2023-08-07T05:42:47;21.38;;;5.00;;
18082;SDS011;9168;51.194;6.840;2023-08-07T05:45:15;19.60;;;4.18;;
18082;SDS011;9168;51.194;6.840;2023-08-07T05:47:42;17.65;;;4.80;;
18082;SDS011;9168;51.194;6.840;2023-08-07T05:50:09;25.33;;;5.13;;
18082;SDS011;9168;51.194;6.840;2023-08-07T05:52:36;23.77;;;4.95;;
18082;SDS011;9168;51.194;6.840;2023-08-07T05:55:05;14.45;;;4.13;;
18082;SDS011;9168;51.194;6.840;2023-08-07T05:57:33;21.63;;;4.63;;
18082;SDS011;9168;51.194;6.840;2023-08-07T06:00:00;12.95;;;4.35;;
18082;SDS011;9168;51.194;6.840;2023-08-07T06:02:27;21.05;;;5.03;;
18082;SDS011;9168;51.194;6.840;2023-08-07T06:04:54;16.35;;;4.45;;
18082;SDS011;9168;51.194;6.840;2023-08-07T06:07:21;19.73;;;4.13;;
18082;SDS011;9168;51.194;6.840;2023-08-07T06:09:48;21.45;;;4.80;;
18082;SDS011;9168;51.194;6.840;2023-08-07T06:12:16;19.08;;;4.45;;
18082;SDS011;9168;51.194;6.840;2023-08-07T06:14:43;18.30;;;4.38;;
18082;SDS011;9168;51.194;6.840;2023-08-07T06:17:10;21.98;;;5.22;;
18082;SDS011;9168;51.194;6.840;2023-08-07T06:19:37;24.95;;;4.72;;
18082;SDS011;9168;51.194;6.840;2023-08-07T06:22:04;21.17;;;4.75;;
18082;SDS011;9168;51.194;6.840;2023-08-07T06:24:31;28.92;;;4.80;;
18082;SDS011;9168;51.194;6.840;2023-08-07T06:26:58;20.67;;;4.35;;
18082;SDS011;9168;51.194;6.840;2023-08-07T06:29:26;20.30;;;5.00;;
18082;SDS011;9168;51.194;6.840;2023-08-07T06:31:53;21.08;;;4.72;;
18082;SDS011;9168;51.194;6.840;2023-08-07T06:34:20;17.42;;;4.60;;
18082;SDS011;9168;51.194;6.840;2023-08-07T06:36:47;20.95;;;4.93;;
18082;SDS011;9168;51.194;6.840;2023-08-07T06:39:14;19.08;;;4.30;;
18082;SDS011;9168;51.194;6.840;2023-08-07T06:41:41;15.27;;;4.95;;
18082;SDS011;9168;51.194;6.840;2023-08-07T06:44:08;18.52;;;4.60;;
18082;SDS011;9168;51.194;6.840;2023-08-07T06:46:36;18.70;;;4.80;;
18082;SDS011;9168;51.194;6.840;2023-08-07T06:49:03;19.48;;;4.63;;
18082;SDS011;9168;51.194;6.840;2023-08-07T06:51:30;12.18;;;3.97;;
18082;SDS011;9168;51.194;6.840;2023-08-07T06:53:57;17.92;;;4.35;;
18082;SDS011;9168;51.194;6.840;2023-08-07T06:56:24;18.35;;;3.90;;
18082;SDS011;9168;51.194;6.840;2023-08-07T06:58:50;15.23;;;4.05;;
18082;SDS011;9168;51.194;6.840;2023-08-07T07:01:17;10.73;;;3.80;;
18082;SDS011;9168;51.194;6.840;2023-08-07T07:03:46;15.13;;;3.80;;
18082;SDS011;9168;51.194;6.840;2023-08-07T07:06:17;12.45;;;4.15;;
18082;SDS011;9168;51.194;6.840;2023-08-07T07:08:45;17.73;;;4.43;;
18082;SDS011;9168;51.194;6.840;2023-08-07T07:11:12;15.50;;;4.07;;
18082;SDS011;9168;51.194;6.840;2023-08-07T07:13:39;12.02;;;3.72;;
18082;SDS011;9168;51.194;6.840;2023-08-07T07:16:06;14.30;;;4.38;;
18082;SDS011;9168;51.194;6.840;2023-08-07T07:18:33;15.65;;;4.32;;
18082;SDS011;9168;51.194;6.840;2023-08-07T07:21:02;24.73;;;4.63;;
18082;SDS011;9168;51.194;6.840;2023-08-07T07:23:28;16.48;;;4.47;;
18082;SDS011;9168;51.194;6.840;2023-08-07T07:25:57;22.55;;;4.60;;
18082;SDS011;9168;51.194;6.840;2023-08-07T07:28:24;10.07;;;4.05;;
18082;SDS011;9168;51.194;6.840;2023-08-07T07:30:51;16.65;;;4.28;;
18082;SDS011;9168;51.194;6.840;2023-08-07T07:33:18;16.63;;;3.95;;
18082;SDS011;9168;51.194;6.840;2023-08-07T07:35:45;16.48;;;4.07;;
18082;SDS011;9168;51.194;6.840;2023-08-07T07:38:13;19.75;;;4.70;;
18082;SDS011;9168;51.194;6.840;2023-08-07T07:40:41;16.58;;;3.78;;
18082;SDS011;9168;51.194;6.840;2023-08-07T07:43:08;13.75;;;4.20;;
18082;SDS011;9168;51.194;6.840;2023-08-07T07:45:35;13.82;;;3.75;;
18082;SDS011;9168;51.194;6.840;2023-08-07T07:48:02;19.92;;;4.50;;
18082;SDS011;9168;51.194;6.840;2023-08-07T07:50:30;16.13;;;4.07;;
18082;SDS011;9168;51.194;6.840;2023-08-07T07:52:58;16.95;;;4.32;;
18082;SDS011;9168;51.194;6.840;2023-08-07T07:55:26;15.73;;;4.85;;
18082;SDS011;9168;51.194;6.840;2023-08-07T07:57:54;19.60;;;4.45;;
18082;SDS011;9168;51.194;6.840;2023-08-07T08:00:21;18.15;;;5.00;;
18082;SDS011;9168;51.194;6.840;2023-08-07T08:02:51;23.13;;;4.55;;
18082;SDS011;9168;51.194;6.840;2023-08-07T08:05:18;20.45;;;5.57;;
18082;SDS011;9168;51.194;6.840;2023-08-07T08:07:45;24.95;;;4.75;;
18082;SDS011;9168;51.194;6.840;2023-08-07T08:10:12;21.50;;;4.57;;
18082;SDS011;9168;51.194;6.840;2023-08-07T08:12:40;19.27;;;4.00;;
18082;SDS011;9168;51.194;6.840;2023-08-07T08:15:07;25.27;;;4.65;;
18082;SDS011;9168;51.194;6.840;2023-08-07T08:17:35;16.27;;;4.25;;
18082;SDS011;9168;51.194;6.840;2023-08-07T08:20:02;22.15;;;4.40;;
18082;SDS011;9168;51.194;6.840;2023-08-07T08:22:29;26.73;;;5.22;;
18082;SDS011;9168;51.194;6.840;2023-08-07T08:24:56;15.38;;;4.30;;
18082;SDS011;9168;51.194;6.840;2023-08-07T08:27:23;18.02;;;4.97;;
18082;SDS011;9168;51.194;6.840;2023-08-07T08:29:51;15.32;;;5.35;;
18082;SDS011;9168;51.194;6.840;2023-08-07T08:32:18;15.20;;;4.70;;
18082;SDS011;9168;51.194;6.840;2023-08-07T08:34:45;16.48;;;4.97;;
18082;SDS011;9168;51.194;6.840;2023-08-07T08:37:14;17.70;;;4.57;;
18082;SDS011;9168;51.194;6.840;2023-08-07T08:39:41;18.40;;;4.50;;
18082;SDS011;9168;51.194;6.840;2023-08-07T08:42:08;19.23;;;4.70;;
18082;SDS011;9168;51.194;6.840;2023-08-07T08:44:39;13.55;;;4.10;;
18082;SDS011;9168;51.194;6.840;2023-08-07T08:47:07;17.35;;;4.63;;
18082;SDS011;9168;51.194;6.840;2023-08-07T08:49:37;19.67;;;3.90;;
18082;SDS011;9168;51.194;6.840;2023-08-07T08:52:12;20.27;;;4.30;;
18082;SDS011;9168;51.194;6.840;2023-08-07T08:54:41;18.83;;;4.05;;
18082;SDS011;9168;51.194;6.840;2023-08-07T08:57:09;14.50;;;3.13;;
18082;SDS011;9168;51.194;6.840;2023-08-07T08:59:38;11.38;;;3.30;;
18082;SDS011;9168;51.194;6.840;2023-08-07T09:02:05;12.43;;;2.60;;
18082;SDS011;9168;51.194;6.840;2023-08-07T09:04:34;11.90;;;2.78;;
18082;SDS011;9168;51.194;6.840;2023-08-07T09:07:01;11.68;;;2.22;;
18082;SDS011;9168;51.194;6.840;2023-08-07T09:09:28;9.30;;;2.40;;
18082;SDS011;9168;51.194;6.840;2023-08-07T09:11:56;10.82;;;2.92;;
18082;SDS011;9168;51.194;6.840;2023-08-07T09:14:26;10.88;;;2.50;;
18082;SDS011;9168;51.194;6.840;2023-08-07T09:16:57;15.38;;;3.22;;
18082;SDS011;9168;51.194;6.840;2023-08-07T09:19:27;13.15;;;3.50;;
18082;SDS011;9168;51.194;6.840;2023-08-07T09:21:55;20.27;;;3.63;;
18082;SDS011;9168;51.194;6.840;2023-08-07T09:24:22;13.40;;;3.50;;
18082;SDS011;9168;51.194;6.840;2023-08-07T09:26:50;18.23;;;4.18;;
18082;SDS011;9168;51.194;6.840;2023-08-07T09:29:18;19.15;;;4.22;;
18082;SDS011;9168;51.194;6.840;2023-08-07T09:31:46;12.65;;;3.75;;
18082;SDS011;9168;51.194;6.840;2023-08-07T09:34:13;14.73;;;2.90;;
18082;SDS011;9168;51.194;6.840;2023-08-07T09:36:43;14.85;;;3.80;;
18082;SDS011;9168;51.194;6.840;2023-08-07T09:39:11;16.83;;;4.05;;
18082;SDS011;9168;51.194;6.840;2023-08-07T09:41:39;17.80;;;3.45;;
18082;SDS011;9168;51.194;6.840;2023-08-07T09:44:07;8.93;;;2.53;;
18082;SDS011;9168;51.194;6.840;2023-08-07T09:46:40;20.08;;;3.53;;
18082;SDS011;9168;51.194;6.840;2023-08-07T09:49:07;12.85;;;2.88;;
18082;SDS011;9168;51.194;6.840;2023-08-07T09:51:40;12.45;;;2.83;;
18082;SDS011;9168;51.194;6.840;2023-08-07T09:54:08;10.95;;;2.97;;
18082;SDS011;9168;51.194;6.840;2023-08-07T09:56:36;13.52;;;3.15;;
18082;SDS011;9168;51.194;6.840;2023-08-07T09:59:04;13.43;;;3.08;;
18082;SDS011;9168;51.194;6.840;2023-08-07T10:01:31;15.85;;;3.35;;
18082;SDS011;9168;51.194;6.840;2023-08-07T10:03:58;20.67;;;3.75;;
18082;SDS011;9168;51.194;6.840;2023-08-07T10:06:26;16.35;;;3.45;;
18082;SDS011;9168;51.194;6.840;2023-08-07T10:08:53;18.17;;;3.78;;
18082;SDS011;9168;51.194;6.840;2023-08-07T10:11:21;20.77;;;3.90;;
18082;SDS011;9168;51.194;6.840;2023-08-07T10:13:49;12.05;;;2.78;;
18082;SDS011;9168;51.194;6.840;2023-08-07T10:16:17;17.88;;;3.05;;
18082;SDS011;9168;51.194;6.840;2023-08-07T10:18:44;13.43;;;3.00;;
18082;SDS011;9168;51.194;6.840;2023-08-07T10:21:10;16.38;;;3.63;;
18082;SDS011;9168;51.194;6.840;2023-08-07T10:23:38;12.30;;;3.13;;
18082;SDS011;9168;51.194;6.840;2023-08-07T10:26:06;14.98;;;3.10;;
18082;SDS011;9168;51.194;6.840;2023-08-07T10:28:36;16.38;;;3.25;;
18082;SDS011;9168;51.194;6.840;2023-08-07T10:31:06;11.65;;;3.22;;
18082;SDS011;9168;51.194;6.840;2023-08-07T10:33:35;14.52;;;2.95;;
18082;SDS011;9168;51.194;6.840;2023-08-07T10:36:07;12.65;;;3.10;;
18082;SDS011;9168;51.194;6.840;2023-08-07T10:38:35;14.38;;;2.67;;
18082;SDS011;9168;51.194;6.840;2023-08-07T10:41:05;17.50;;;3.50;;
18082;SDS011;9168;51.194;6.840;2023-08-07T10:43:36;11.30;;;2.80;;
18082;SDS011;9168;51.194;6.840;2023-08-07T10:46:04;13.63;;;3.03;;
18082;SDS011;9168;51.194;6.840;2023-08-07T10:48:38;10.10;;;2.72;;
18082;SDS011;9168;51.194;6.840;2023-08-07T10:51:06;10.93;;;2.25;;
18082;SDS011;9168;51.194;6.840;2023-08-07T10:53:34;13.55;;;2.85;;
18082;SDS011;9168;51.194;6.840;2023-08-07T10:56:04;11.45;;;3.03;;
18082;SDS011;9168;51.194;6.840;2023-08-07T10:58:33;11.00;;;2.65;;
18082;SDS011;9168;51.194;6.840;2023-08-07T11:03:45;14.60;;;2.65;;
18082;SDS011;9168;51.194;6.840;2023-08-07T11:06:16;8.52;;;2.33;;
18082;SDS011;9168;51.194;6.840;2023-08-07T11:08:43;12.32;;;2.40;;
18082;SDS011;9168;51.194;6.840;2023-08-07T11:11:10;13.13;;;2.20;;
18082;SDS011;9168;51.194;6.840;2023-08-07T11:13:37;8.40;;;2.20;;
18082;SDS011;9168;51.194;6.840;2023-08-07T11:16:04;6.15;;;2.00;;
18082;SDS011;9168;51.194;6.840;2023-08-07T11:18:31;10.07;;;2.35;;
18082;SDS011;9168;51.194;6.840;2023-08-07T11:21:02;10.30;;;2.70;;
18082;SDS011;9168;51.194;6.840;2023-08-07T11:23:29;13.05;;;2.80;;
18082;SDS011;9168;51.194;6.840;2023-08-07T11:25:55;12.48;;;2.60;;
18082;SDS011;9168;51.194;6.840;2023-08-07T11:28:23;8.60;;;2.15;;
18082;SDS011;9168;51.194;6.840;2023-08-07T11:30:50;13.82;;;2.72;;
18082;SDS011;9168;51.194;6.840;2023-08-07T11:33:18;8.77;;;2.35;;
18082;SDS011;9168;51.194;6.840;2023-08-07T11:35:45;11.60;;;2.45;;
18082;SDS011;9168;51.194;6.840;2023-08-07T11:38:15;7.22;;;1.98;;
18082;SDS011;9168;51.194;6.840;2023-08-07T11:40:56;9.35;;;2.53;;
18082;SDS011;9168;51.194;6.840;2023-08-07T11:43:24;8.10;;;2.33;;
18082;SDS011;9168;51.194;6.840;2023-08-07T11:45:51;9.63;;;2.10;;
18082;SDS011;9168;51.194;6.840;2023-08-07T11:48:18;8.63;;;2.50;;
18082;SDS011;9168;51.194;6.840;2023-08-07T11:50:45;9.43;;;2.50;;
18082;SDS011;9168;51.194;6.840;2023-08-07T11:53:12;11.52;;;2.83;;
18082;SDS011;9168;51.194;6.840;2023-08-07T11:55:46;9.93;;;2.38;;
18082;SDS011;9168;51.194;6.840;2023-08-07T11:58:14;10.32;;;3.03;;
18082;SDS011;9168;51.194;6.840;2023-08-07T12:00:43;8.75;;;2.35;;
18082;SDS011;9168;51.194;6.840;2023-08-07T12:03:23;8.95;;;2.42;;
18082;SDS011;9168;51.194;6.840;2023-08-07T12:05:54;7.75;;;2.15;;
18082;SDS011;9168;51.194;6.840;2023-08-07T12:08:24;7.00;;;2.20;;
18082;SDS011;9168;51.194;6.840;2023-08-07T12:10:51;8.02;;;2.50;;
18082;SDS011;9168;51.194;6.840;2023-08-07T12:13:20;6.90;;;2.42;;
18082;SDS011;9168;51.194;6.840;2023-08-07T12:15:50;9.73;;;2.63;;
18082;SDS011;9168;51.194;6.840;2023-08-07T12:18:19;16.48;;;2.90;;
18082;SDS011;9168;51.194;6.840;2023-08-07T12:20:48;8.40;;;2.78;;
18082;SDS011;9168;51.194;6.840;2023-08-07T12:23:15;7.40;;;2.42;;
18082;SDS011;9168;51.194;6.840;2023-08-07T12:25:44;10.23;;;2.00;;
18082;SDS011;9168;51.194;6.840;2023-08-07T12:28:11;7.28;;;2.33;;
18082;SDS011;9168;51.194;6.840;2023-08-07T12:30:38;8.73;;;2.70;;
18082;SDS011;9168;51.194;6.840;2023-08-07T12:33:05;7.40;;;2.55;;
18082;SDS011;9168;51.194;6.840;2023-08-07T12:35:32;14.40;;;2.58;;
18082;SDS011;9168;51.194;6.840;2023-08-07T12:38:00;15.32;;;2.67;;
18082;SDS011;9168;51.194;6.840;2023-08-07T12:40:28;12.20;;;2.92;;
18082;SDS011;9168;51.194;6.840;2023-08-07T12:42:56;7.35;;;2.30;;
18082;SDS011;9168;51.194;6.840;2023-08-07T12:45:24;10.23;;;2.67;;
18082;SDS011;9168;51.194;6.840;2023-08-07T12:47:51;8.98;;;2.35;;
18082;SDS011;9168;51.194;6.840;2023-08-07T12:50:18;8.02;;;2.50;;
18082;SDS011;9168;51.194;6.840;2023-08-07T12:52:45;7.05;;;2.17;;
18082;SDS011;9168;51.194;6.840;2023-08-07T12:55:11;8.40;;;2.38;;
18082;SDS011;9168;51.194;6.840;2023-08-07T12:57:39;9.77;;;2.72;;
18082;SDS011;9168;51.194;6.840;2023-08-07T13:00:09;9.43;;;2.28;;
18082;SDS011;9168;51.194;6.840;2023-08-07T13:02:40;10.48;;;2.45;;
18082;SDS011;9168;51.194;6.840;2023-08-07T13:05:07;11.00;;;2.25;;
18082;SDS011;9168;51.194;6.840;2023-08-07T13:07:35;10.55;;;2.80;;
18082;SDS011;9168;51.194;6.840;2023-08-07T13:10:03;13.18;;;2.22;;
18082;SDS011;9168;51.194;6.840;2023-08-07T13:12:33;16.85;;;2.60;;
18082;SDS011;9168;51.194;6.840;2023-08-07T13:15:01;7.60;;;1.90;;
18082;SDS011;9168;51.194;6.840;2023-08-07T13:17:30;6.25;;;2.33;;
18082;SDS011;9168;51.194;6.840;2023-08-07T13:19:57;6.25;;;2.20;;
18082;SDS011;9168;51.194;6.840;2023-08-07T13:22:24;7.07;;;2.55;;
18082;SDS011;9168;51.194;6.840;2023-08-07T13:24:52;9.10;;;2.45;;
18082;SDS011;9168;51.194;6.840;2023-08-07T13:27:18;9.50;;;2.17;;
18082;SDS011;9168;51.194;6.840;2023-08-07T13:29:46;6.38;;;2.35;;
18082;SDS011;9168;51.194;6.840;2023-08-07T13:32:13;9.65;;;2.60;;
18082;SDS011;9168;51.194;6.840;2023-08-07T13:34:44;6.70;;;2.35;;
18082;SDS011;9168;51.194;6.840;2023-08-07T13:37:11;6.35;;;2.30;;
18082;SDS011;9168;51.194;6.840;2023-08-07T13:39:39;7.05;;;2.25;;
18082;SDS011;9168;51.194;6.840;2023-08-07T13:42:06;6.90;;;2.45;;
18082;SDS011;9168;51.194;6.840;2023-08-07T13:44:35;11.23;;;2.10;;
18082;SDS011;9168;51.194;6.840;2023-08-07T13:47:02;10.48;;;2.33;;
18082;SDS011;9168;51.194;6.840;2023-08-07T13:49:29;8.35;;;2.83;;
18082;SDS011;9168;51.194;6.840;2023-08-07T13:51:58;5.70;;;2.40;;
18082;SDS011;9168;51.194;6.840;2023-08-07T13:54:24;6.55;;;2.42;;
18082;SDS011;9168;51.194;6.840;2023-08-07T13:56:52;8.48;;;2.30;;
18082;SDS011;9168;51.194;6.840;2023-08-07T13:59:18;4.88;;;2.20;;
18082;SDS011;9168;51.194;6.840;2023-08-07T14:01:45;10.07;;;2.22;;
18082;SDS011;9168;51.194;6.840;2023-08-07T14:04:11;4.90;;;2.15;;
18082;SDS011;9168;51.194;6.840;2023-08-07T14:06:39;4.88;;;2.20;;
18082;SDS011;9168;51.194;6.840;2023-08-07T14:09:08;8.35;;;2.38;;
18082;SDS011;9168;51.194;6.840;2023-08-07T14:11:36;6.45;;;2.20;;
18082;SDS011;9168;51.194;6.840;2023-08-07T14:14:02;8.23;;;2.78;;
18082;SDS011;9168;51.194;6.840;2023-08-07T14:16:29;7.72;;;2.53;;
18082;SDS011;9168;51.194;6.840;2023-08-07T14:18:57;5.03;;;1.90;;
18082;SDS011;9168;51.194;6.840;2023-08-07T14:21:24;6.80;;;2.50;;
18082;SDS011;9168;51.194;6.840;2023-08-07T14:23:51;9.80;;;2.42;;
18082;SDS011;9168;51.194;6.840;2023-08-07T14:26:19;6.82;;;2.50;;
18082;SDS011;9168;51.194;6.840;2023-08-07T14:28:46;6.20;;;2.30;;
18082;SDS011;9168;51.194;6.840;2023-08-07T14:31:13;8.48;;;2.17;;
18082;SDS011;9168;51.194;6.840;2023-08-07T14:33:40;9.45;;;2.80;;
18082;SDS011;9168;51.194;6.840;2023-08-07T14:36:07;8.25;;;2.85;;
18082;SDS011;9168;51.194;6.840;2023-08-07T14:38:34;7.32;;;2.40;;
18082;SDS011;9168;51.194;6.840;2023-08-07T14:41:01;10.25;;;3.00;;
18082;SDS011;9168;51.194;6.840;2023-08-07T14:43:29;7.57;;;2.67;;
18082;SDS011;9168;51.194;6.840;2023-08-07T14:45:57;9.18;;;2.70;;
18082;SDS011;9168;51.194;6.840;2023-08-07T14:48:24;11.27;;;2.78;;
18082;SDS011;9168;51.194;6.840;2023-08-07T14:50:51;7.25;;;2.58;;
18082;SDS011;9168;51.194;6.840;2023-08-07T14:53:18;9.90;;;2.90;;
18082;SDS011;9168;51.194;6.840;2023-08-07T14:55:45;6.30;;;2.63;;